Time;durP1;ratioP1;P1;durP2;ratioP2;P2;SDS_P1;SDS_P2;PMS_P1;PMS_P2;Temp;Humidity;BMP_temperature;BMP_pressure;BME280_temperature;BME280_humidity;BME280_pressure;Samples;Min_cycle;Max_cycle;Signal;HPM_P1;HPM_P2
2023/01/26 00:07:09;;;;;;;26.05;12.82;;;;;;;1.27;80.80;100917.09;30977443;28;97150;-67
2023/01/26 00:22:09;;;;;;;28.52;12.90;;;;;;;1.29;80.93;100912.56;30976459;28;96758;-67
2023/01/26 00:37:09;;;;;;;24.17;11.20;;;;;;;1.29;80.50;100906.50;30975473;28;96950;-68
2023/01/26 00:52:13;;;;;;;33.72;15.55;;;;;;;1.15;80.85;100904.69;30974257;28;97291;-67
2023/01/26 01:07:13;;;;;;;31.60;11.53;;;;;;;1.16;80.34;100911.59;30973671;28;96635;-66
2023/01/26 01:22:14;;;;;;;28.48;11.88;;;;;;;1.18;80.60;100899.25;30991665;28;96775;-66
2023/01/26 01:37:16;;;;;;;28.20;12.95;;;;;;;1.18;80.97;100897.47;30991718;28;97249;-66
2023/01/26 01:52:27;;;;;;;29.17;12.40;;;;;;;1.11;81.19;100877.78;30990128;28;96741;-67
2023/01/26 02:07:31;;;;;;;38.30;15.20;;;;;;;1.08;80.42;100856.97;30988494;28;96716;-67
2023/01/26 02:22:59;;;;;;;31.83;14.23;;;;;;;0.96;80.34;100834.09;30986749;28;96801;-66
2023/01/26 02:37:59;;;;;;;30.30;14.52;;;;;;;0.98;80.48;100819.09;30983856;28;98293;-66
2023/01/26 02:53:00;;;;;;;38.15;15.88;;;;;;;0.96;80.47;100807.88;30983595;28;96580;-66
2023/01/26 03:08:00;;;;;;;50.33;18.48;;;;;;;0.91;80.27;100789.75;30982893;28;96643;-72
2023/01/26 03:38:33;;;;;;;38.58;17.08;;;;;;;0.78;79.01;100760.81;30955977;28;96763;-66
2023/01/26 04:08:53;;;;;;;25.67;14.38;;;;;;;0.77;78.42;100745.19;30976355;28;96691;-66
2023/01/26 04:23:57;;;;;;;37.50;14.32;;;;;;;0.63;77.94;100731.13;30975517;28;97843;-67
2023/01/26 04:38:57;;;;;;;29.67;14.93;;;;;;;0.58;77.61;100732.34;30967497;28;96824;-66
2023/01/26 04:53:58;;;;;;;34.17;15.23;;;;;;;0.49;77.25;100708.38;30981762;28;97325;-68
2023/01/26 05:08:58;;;;;;;26.08;12.23;;;;;;;0.46;76.90;100699.84;30990174;28;97360;-66
2023/01/26 05:23:58;;;;;;;27.92;13.55;;;;;;;0.48;76.64;100697.97;30987211;28;97354;-70
2023/01/26 05:38:59;;;;;;;23.35;11.63;;;;;;;0.50;76.46;100694.31;30987308;28;97240;-68
2023/01/26 05:53:59;;;;;;;23.42;11.68;;;;;;;0.41;76.14;100697.50;30982934;28;97368;-67
2023/01/26 06:09:00;;;;;;;24.75;13.00;;;;;;;0.41;76.00;100683.53;30983978;28;96678;-68
2023/01/26 06:24:00;;;;;;;33.95;15.48;;;;;;;0.45;76.09;100669.31;30983500;28;97291;-68
2023/01/26 06:39:01;;;;;;;26.08;13.27;;;;;;;0.50;75.74;100675.94;30980021;28;96681;-68
2023/01/26 06:54:01;;;;;;;23.27;13.13;;;;;;;0.56;75.40;100681.75;30977006;28;97449;-67
2023/01/26 07:09:02;;;;;;;27.75;15.88;;;;;;;0.53;75.32;100687.19;30975097;28;96865;-67
2023/01/26 07:24:03;;;;;;;35.35;17.77;;;;;;;0.58;75.65;100693.00;30976691;28;96731;-71
2023/01/26 07:39:05;;;;;;;34.63;16.52;;;;;;;0.53;75.18;100674.94;30973270;28;96716;-79
2023/01/26 07:54:06;;;;;;;30.35;15.95;;;;;;;0.50;75.04;100669.88;30973367;28;97024;-68
2023/01/26 08:09:06;;;;;;;36.38;17.85;;;;;;;0.50;75.10;100675.94;30973287;28;96642;-70
2023/01/26 08:24:07;;;;;;;23.35;13.70;;;;;;;0.62;75.19;100671.75;30980382;28;97686;-69
2023/01/26 08:39:07;;;;;;;33.33;15.82;;;;;;;0.52;74.84;100675.88;30992681;28;97210;-70
2023/01/26 08:54:08;;;;;;;29.15;14.85;;;;;;;0.55;74.55;100680.06;30989230;28;97314;-68
2023/01/26 09:09:12;;;;;;;23.25;13.10;;;;;;;0.70;74.70;100687.03;30988175;28;97935;-72
2023/01/26 09:24:12;;;;;;;24.13;13.20;;;;;;;0.71;74.51;100685.22;30988569;28;96711;-67
2023/01/26 09:39:12;;;;;;;31.13;13.30;;;;;;;0.85;74.28;100666.88;30983596;28;96752;-67
2023/01/26 09:54:43;;;;;;;22.25;11.57;;;;;;;0.83;73.79;100656.47;30987498;28;97379;-68
2023/01/26 10:09:47;;;;;;;28.38;13.32;;;;;;;1.09;73.50;100642.63;30980430;28;97396;-73
2023/01/26 10:24:51;;;;;;;26.73;15.30;;;;;;;1.29;72.82;100633.50;30980830;28;96806;-70
2023/01/26 10:39:59;;;;;;;24.83;13.10;;;;;;;0.96;72.91;100629.47;30978574;28;97352;-69
2023/01/26 10:55:19;;;;;;;28.42;16.08;;;;;;;1.43;73.29;100632.59;30978752;28;96819;-71
2023/01/26 11:10:32;;;;;;;22.45;13.70;;;;;;;1.53;72.22;100620.53;30976871;28;97099;-67
2023/01/26 11:25:32;;;;;;;31.25;17.50;;;;;;;1.71;72.88;100591.34;31739647;22;98683;-71
2023/01/26 11:40:53;;;;;;;31.10;16.27;;;;;;;1.67;72.55;100585.50;30852083;28;97274;-65
2023/01/26 11:56:32;;;;;;;29.70;16.15;;;;;;;1.79;72.48;100568.91;30849941;28;96768;-69
2023/01/26 12:11:44;;;;;;;28.77;14.55;;;;;;;1.67;71.86;100554.81;30850547;28;96724;-68
2023/01/26 12:26:48;;;;;;;30.77;16.52;;;;;;;1.57;71.82;100548.47;30849119;28;97090;-67
2023/01/26 12:42:09;;;;;;;31.93;16.70;;;;;;;1.52;71.58;100535.66;30847787;28;96751;-67
2023/01/26 12:57:20;;;;;;;32.92;14.95;;;;;;;1.55;71.48;100534.63;30845659;28;96597;-70
2023/01/26 13:12:49;;;;;;;25.20;14.77;;;;;;;1.42;71.15;100520.63;30854366;28;96642;-71
2023/01/26 13:27:57;;;;;;;34.17;14.90;;;;;;;1.49;71.39;100525.38;30854043;28;96822;-72
2023/01/26 13:43:09;;;;;;;31.55;14.23;;;;;;;1.37;70.90;100531.44;30862722;28;96927;-66
2023/01/26 13:58:17;;;;;;;24.80;13.35;;;;;;;1.25;71.13;100527.03;30850062;28;97073;-66
2023/01/26 14:13:26;;;;;;;24.35;13.75;;;;;;;1.17;70.82;100503.91;30832455;28;98035;-71
2023/01/26 14:28:33;;;;;;;34.60;14.75;;;;;;;1.08;71.00;100512.38;30831592;28;97177;-68
2023/01/26 14:43:34;;;;;;;29.83;13.23;;;;;;;0.94;71.19;100514.09;30836387;28;97424;-64
2023/01/26 14:58:34;;;;;;;27.95;14.38;;;;;;;0.88;70.95;100501.41;30832042;28;96771;-64
2023/01/26 15:13:35;;;;;;;30.00;15.30;;;;;;;0.93;71.18;100496.72;30828438;28;97195;-64
2023/01/26 15:28:37;;;;;;;29.35;15.93;;;;;;;0.85;70.91;100504.25;30823571;28;97630;-65
2023/01/26 15:43:37;;;;;;;29.48;15.05;;;;;;;0.77;70.83;100509.16;30824468;28;97365;-64
2023/01/26 15:58:39;;;;;;;38.50;16.33;;;;;;;0.69;71.30;100509.63;30823561;28;97998;-63
2023/01/26 16:13:43;;;;;;;31.75;15.25;;;;;;;0.66;71.36;100505.41;30820333;28;98483;-63
2023/01/26 16:28:45;;;;;;;23.97;14.00;;;;;;;0.66;71.45;100510.66;30820250;28;97423;-65
2023/01/26 16:43:45;;;;;;;33.40;16.33;;;;;;;0.66;71.39;100513.28;30825054;28;96784;-65
2023/01/26 16:58:46;;;;;;;31.05;17.05;;;;;;;0.60;71.43;100516.31;30841346;28;97323;-65
2023/01/26 17:13:47;;;;;;;32.10;14.82;;;;;;;0.63;71.50;100523.97;30841933;28;96816;-65
2023/01/26 17:28:49;;;;;;;40.72;16.90;;;;;;;0.67;71.30;100528.09;30836498;28;96942;-69
2023/01/26 17:43:50;;;;;;;33.00;17.50;;;;;;;0.61;71.13;100525.84;30835647;28;97755;-67
2023/01/26 17:58:53;;;;;;;31.08;17.00;;;;;;;0.58;71.42;100526.03;30833407;28;97544;-70
2023/01/26 18:13:54;;;;;;;38.67;19.03;;;;;;;0.57;71.58;100516.50;30831452;28;97007;-66
2023/01/26 18:28:54;;;;;;;43.40;18.63;;;;;;;0.55;71.50;100531.50;30830786;28;97167;-64
2023/01/26 18:43:57;;;;;;;40.47;17.45;;;;;;;0.54;71.69;100531.59;30828510;28;97215;-67
2023/01/26 18:58:58;;;;;;;44.53;18.75;;;;;;;0.54;71.89;100539.47;30829737;28;97266;-67
2023/01/26 19:14:00;;;;;;;40.88;18.25;;;;;;;0.52;72.16;100550.03;30826814;28;96686;-64
2023/01/26 19:29:00;;;;;;;41.83;21.20;;;;;;;0.57;71.80;100554.97;30732059;28;97444;-65
2023/01/26 19:44:00;;;;;;;42.00;20.98;;;;;;;0.55;72.03;100552.47;30694079;28;97031;-70
2023/01/26 19:59:04;;;;;;;49.58;20.88;;;;;;;0.57;72.01;100541.88;30701419;28;97142;-74
2023/01/26 20:14:09;;;;;;;37.45;19.67;;;;;;;0.60;72.38;100534.66;30700859;28;97088;-66
2023/01/26 20:29:12;;;;;;;38.22;16.33;;;;;;;0.58;72.35;100535.69;30721874;28;97122;-65
2023/01/26 20:44:12;;;;;;;34.58;16.40;;;;;;;0.32;72.35;100541.63;30720590;28;97373;-71
2023/01/26 20:59:13;;;;;;;45.92;20.55;;;;;;;0.19;72.86;100535.47;30735582;28;97177;-72
2023/01/26 21:14:13;;;;;;;45.67;20.70;;;;;;;0.40;73.63;100521.97;30717892;28;97398;-65
2023/01/26 21:29:15;;;;;;;46.22;24.25;;;;;;;0.41;73.46;100526.25;30717184;28;97279;-66
2023/01/26 21:44:21;;;;;;;55.53;26.80;;;;;;;0.39;74.25;100528.16;30738487;28;97268;-67
2023/01/26 21:59:21;;;;;;;54.00;23.60;;;;;;;0.44;74.80;100515.59;30774557;28;97021;-64
2023/01/26 22:14:26;;;;;;;49.83;25.95;;;;;;;0.47;74.84;100507.53;30768672;28;97725;-65
2023/01/26 22:29:26;;;;;;;;;;;;;;;0.44;75.29;100503.34;30774022;28;96794;-65
2023/01/26 22:44:26;;;;;;;64.32;24.67;;;;;;;0.54;75.75;100500.97;30842655;28;97129;-65
2023/01/26 22:59:27;;;;;;;51.60;24.95;;;;;;;0.48;75.68;100498.75;30861067;28;96639;-66
2023/01/26 23:14:29;;;;;;;51.38;25.85;;;;;;;0.52;75.77;100491.50;30859840;28;96684;-74
2023/01/26 23:29:29;;;;;;;48.55;24.42;;;;;;;0.52;76.24;100492.38;30858114;28;96787;-75
2023/01/26 23:44:29;;;;;;;54.72;26.25;;;;;;;0.60;76.31;100491.84;30857718;28;96739;-65
2023/01/26 23:59:30;;;;;;;46.00;24.02;;;;;;;0.55;76.87;100502.66;30855523;28;97032;-75
